createdAt,value
2019-05-15T00:00:58.719Z,95.80
2019-05-15T00:03:46.313Z,95.50
2019-05-15T00:06:34.369Z,95.60
2019-05-15T00:09:22.879Z,95.70
2019-05-15T00:12:10.748Z,95.80
2019-05-15T00:14:59.220Z,95.70
2019-05-15T00:17:48.547Z,95.50
2019-05-15T00:20:39.433Z,95.80
2019-05-15T00:23:28.961Z,96.00
2019-05-15T00:26:18.176Z,96.10
2019-05-15T00:29:12.839Z,96.70
2019-05-15T00:31:58.774Z,96.60
2019-05-15T00:34:48.674Z,96.20
2019-05-15T00:37:38.448Z,96.10
2019-05-15T00:40:25.779Z,96.40
2019-05-15T00:43:13.641Z,96.20
2019-05-15T00:46:01.940Z,96.30
2019-05-15T00:48:49.530Z,96.40
2019-05-15T00:51:38.971Z,96.70
2019-05-15T00:54:28.210Z,96.50
2019-05-15T00:57:16.525Z,96.60
2019-05-15T01:00:08.216Z,96.80
2019-05-15T01:02:57.766Z,96.60
2019-05-15T01:14:11.887Z,97.30
2019-05-15T01:16:58.241Z,97.00
2019-05-15T01:19:48.215Z,97.10
2019-05-15T01:22:35.938Z,97.10
2019-05-15T01:25:23.588Z,96.70
2019-05-15T01:28:11.964Z,96.60
2019-05-15T01:33:48.265Z,96.80
2019-05-15T01:36:38.287Z,96.80
2019-05-15T01:39:25.941Z,96.70
2019-05-15T01:45:01.856Z,96.90
2019-05-15T01:47:50.447Z,97.00
2019-05-15T01:56:18.790Z,97.50
2019-05-15T02:13:08.866Z,97.20
2019-05-15T02:15:58.901Z,97.40
2019-05-15T02:27:12.613Z,97.10
2019-05-15T02:30:15.984Z,97.40
2019-05-15T02:32:51.082Z,97.40
2019-05-15T02:35:39.537Z,97.40
2019-05-15T02:41:19.572Z,97.50
2019-05-15T02:44:10.652Z,97.40
2019-05-15T02:58:10.597Z,97.40
2019-05-15T03:03:49.672Z,97.60
2019-05-15T03:12:19.545Z,98.30
2019-05-15T03:17:55.818Z,98.60
2019-05-15T03:20:44.507Z,99.00
2019-05-15T03:26:20.115Z,98.50
2019-05-15T03:32:13.404Z,98.70
2019-05-15T03:34:53.742Z,98.90
2019-05-15T03:37:39.499Z,99.20
2019-05-15T03:40:29.562Z,99.20
2019-05-15T03:46:04.958Z,99.40
2019-05-15T03:48:52.677Z,99.50
2019-05-15T03:51:45.431Z,99.60
2019-05-15T03:54:31.401Z,99.70
2019-05-15T03:57:23.020Z,99.70
2019-05-15T04:00:09.707Z,99.80
2019-05-15T04:05:49.465Z,99.90
2019-05-15T04:08:39.171Z,99.90
2019-05-15T04:11:29.375Z,99.80
2019-05-15T04:17:08.846Z,99.70
2019-05-15T04:19:58.761Z,99.70
2019-05-15T04:22:49.011Z,99.70
2019-05-15T04:34:02.529Z,99.60
2019-05-15T04:36:50.608Z,99.50
2019-05-15T04:42:29.859Z,99.40
2019-05-15T04:45:19.404Z,99.30
2019-05-15T04:48:10.146Z,99.30
2019-05-15T04:50:58.946Z,99.30
2019-05-15T04:56:39.674Z,99.20
2019-05-15T05:05:03.297Z,98.70
2019-05-15T05:16:19.085Z,96.90
2019-05-15T05:19:08.920Z,96.80
2019-05-15T05:24:47.803Z,95.90
2019-05-15T05:30:23.645Z,96.00
2019-05-15T05:35:59.616Z,95.60
2019-05-15T05:38:49.350Z,95.80
2019-05-15T05:44:29.127Z,95.20
2019-05-15T05:55:42.996Z,94.60
2019-05-15T05:58:31.310Z,94.60
2019-05-15T06:04:07.892Z,95.00
2019-05-15T06:09:45.374Z,93.80
2019-05-15T06:12:33.653Z,92.90
2019-05-15T06:18:09.583Z,87.60
2019-05-15T06:20:58.701Z,84.40
2019-05-15T06:23:54.867Z,76.90
2019-05-15T06:35:03.989Z,40.90
2019-05-15T06:37:52.632Z,36.10
2019-05-15T06:43:29.256Z,32.70
2019-05-15T06:49:08.448Z,30.40
2019-05-15T06:54:48.362Z,29.40
2019-05-15T07:00:23.489Z,29.00
2019-05-15T07:03:21.436Z,27.50
2019-05-15T07:06:01.213Z,28.50
2019-05-15T07:08:49.939Z,27.60
2019-05-15T07:11:38.919Z,26.50
2019-05-15T07:14:28.801Z,26.80
2019-05-15T07:17:17.771Z,26.70
2019-05-15T07:22:55.642Z,28.20
2019-05-15T07:28:31.633Z,25.20
2019-05-15T07:31:20.219Z,25.70
2019-05-15T07:34:08.573Z,25.80
2019-05-15T07:36:59.204Z,26.00
2019-05-15T07:39:48.756Z,26.00
2019-05-15T07:42:38.677Z,25.40
2019-05-15T07:48:18.463Z,23.80
2019-05-15T07:51:11.040Z,23.40
2019-05-15T07:59:32.544Z,22.90
2019-05-15T08:02:20.930Z,24.00
2019-05-15T08:10:49.035Z,23.20
2019-05-15T08:13:38.306Z,23.10
2019-05-15T08:16:28.763Z,25.80
2019-05-15T08:19:18.401Z,26.40
2019-05-15T08:24:58.963Z,25.00
2019-05-15T08:27:48.472Z,24.90
2019-05-15T08:36:11.557Z,25.80
2019-05-15T08:38:59.868Z,26.10
2019-05-15T08:41:48.427Z,27.40
2019-05-15T08:44:38.637Z,25.30
2019-05-15T08:53:08.227Z,27.40
2019-05-15T08:55:58.584Z,28.00
2019-05-15T08:58:48.470Z,28.60
2019-05-15T09:01:38.267Z,30.00
2019-05-15T09:04:33.849Z,30.60
2019-05-15T09:10:09.044Z,32.40
2019-05-15T09:15:48.189Z,29.80
2019-05-15T09:21:23.769Z,27.90
2019-05-15T09:24:12.409Z,26.90
2019-05-15T09:27:00.359Z,27.70
2019-05-15T09:29:48.535Z,27.50
2019-05-15T09:32:39.284Z,27.30
2019-05-15T09:35:27.799Z,27.90
2019-05-15T09:38:18.186Z,27.70
2019-05-15T09:41:08.690Z,28.50
2019-05-15T09:43:57.921Z,28.50
2019-05-15T09:52:23.142Z,26.40
2019-05-15T09:55:11.081Z,26.60
2019-05-15T10:00:51.874Z,26.40
2019-05-15T10:06:43.976Z,26.90
2019-05-15T10:09:22.844Z,27.20
2019-05-15T10:34:38.571Z,28.90
2019-05-15T10:40:16.012Z,29.70
2019-05-15T10:48:41.390Z,29.40
2019-05-15T10:51:29.705Z,28.90
2019-05-15T10:57:08.661Z,28.60
2019-05-15T11:02:45.917Z,30.80
2019-05-15T11:05:44.640Z,30.50
2019-05-15T11:08:23.679Z,31.10
2019-05-15T11:11:11.461Z,30.40
2019-05-15T11:14:00.551Z,31.30
2019-05-15T11:16:48.857Z,31.00
2019-05-15T11:19:40.640Z,31.00
2019-05-15T11:22:29.660Z,30.70
2019-05-15T11:25:17.484Z,30.50
2019-05-15T11:28:05.373Z,30.90
2019-05-15T11:30:53.903Z,31.00
2019-05-15T11:33:42.451Z,31.30
2019-05-15T11:36:32.916Z,31.20
2019-05-15T11:39:21.206Z,31.30
2019-05-15T11:42:09.615Z,31.60
2019-05-15T11:44:58.487Z,31.00
2019-05-15T11:47:48.269Z,31.10
2019-05-15T11:56:12.368Z,29.40
2019-05-15T11:59:01.060Z,29.90
2019-05-15T12:01:49.009Z,30.10
2019-05-15T12:04:38.390Z,30.00
2019-05-15T12:10:18.406Z,30.20
2019-05-15T12:13:09.502Z,30.00
2019-05-15T12:15:58.755Z,30.60
2019-05-15T12:18:48.347Z,30.50
2019-05-15T12:21:39.406Z,29.70
2019-05-15T12:24:32.813Z,29.80
2019-05-15T12:27:18.377Z,29.60
2019-05-15T12:30:10.110Z,30.10
2019-05-15T12:33:00.253Z,29.60
2019-05-15T12:35:50.753Z,29.80
2019-05-15T12:38:39.830Z,29.30
2019-05-15T13:01:18.253Z,28.20
2019-05-15T13:04:08.243Z,28.40
2019-05-15T13:07:12.382Z,27.60
2019-05-15T13:09:48.699Z,27.40
2019-05-15T13:12:47.585Z,26.90
2019-05-15T13:15:28.184Z,26.70
2019-05-15T13:18:18.003Z,27.30
2019-05-15T13:21:06.149Z,26.80
2019-05-15T13:23:54.881Z,27.40
2019-05-15T13:26:43.742Z,26.80
2019-05-15T13:35:09.994Z,26.80
2019-05-15T13:37:58.627Z,26.90
2019-05-15T13:40:48.159Z,26.80
2019-05-15T13:43:38.507Z,27.00
2019-05-15T13:46:28.790Z,27.40
2019-05-15T13:49:18.578Z,27.10
2019-05-15T13:52:08.539Z,27.50
2019-05-15T13:54:56.342Z,27.60
2019-05-15T13:57:44.784Z,27.90
2019-05-15T14:00:33.036Z,28.20
2019-05-15T14:03:21.612Z,28.20
2019-05-15T14:06:10.278Z,28.30
2019-05-15T14:08:58.417Z,28.40
2019-05-15T14:12:11.016Z,28.10
2019-05-15T14:17:43.446Z,28.30
2019-05-15T14:20:31.857Z,28.70
2019-05-15T14:23:20.041Z,28.60
2019-05-15T14:26:17.724Z,28.40
2019-05-15T14:28:58.667Z,28.40
2019-05-15T14:31:48.357Z,29.30
2019-05-15T14:34:38.065Z,29.30
2019-05-15T14:37:28.564Z,29.60
2019-05-15T14:40:17.823Z,29.40
2019-05-15T14:45:54.997Z,29.40
2019-05-15T14:48:43.144Z,29.70
2019-05-15T14:51:30.905Z,29.60
2019-05-15T14:57:09.481Z,29.50
2019-05-15T14:59:58.029Z,29.70
2019-05-15T15:02:49.123Z,29.60
2019-05-15T15:05:38.314Z,30.10
2019-05-15T15:08:28.689Z,29.90
2019-05-15T15:11:17.815Z,30.10
2019-05-15T15:14:05.406Z,30.00
2019-05-15T15:16:53.948Z,30.00
2019-05-15T15:19:42.275Z,30.00
2019-05-15T15:22:30.340Z,30.50
2019-05-15T15:25:19.365Z,30.70
2019-05-15T15:28:08.271Z,31.10
2019-05-15T15:30:58.046Z,31.00
2019-05-15T15:33:48.557Z,31.40
2019-05-15T15:36:37.955Z,30.30
2019-05-15T15:39:28.077Z,31.20
2019-05-15T15:42:16.737Z,31.00
2019-05-15T15:50:40.548Z,31.40
2019-05-15T15:53:29.327Z,31.70
2019-05-15T16:01:56.444Z,32.20
2019-05-15T16:04:44.621Z,32.20
2019-05-15T16:07:32.990Z,32.10
2019-05-15T16:10:21.429Z,32.80
2019-05-15T16:15:58.149Z,32.40
2019-05-15T16:18:48.936Z,32.10
2019-05-15T16:24:24.933Z,32.10
2019-05-15T16:27:12.547Z,31.80
2019-05-15T16:30:01.116Z,32.10
2019-05-15T16:32:49.374Z,32.70
2019-05-15T16:35:38.038Z,33.50
2019-05-15T16:38:28.432Z,33.10
2019-05-15T16:41:18.211Z,33.50
2019-05-15T16:44:05.296Z,33.60
2019-05-15T16:46:53.193Z,34.30
2019-05-15T16:49:40.656Z,34.30
2019-05-15T16:52:31.004Z,35.10
2019-05-15T16:55:18.376Z,35.90
2019-05-15T16:58:09.127Z,35.80
2019-05-15T17:00:58.395Z,34.70
2019-05-15T17:03:45.877Z,33.90
2019-05-15T17:06:34.538Z,33.00
2019-05-15T17:09:23.052Z,33.20
2019-05-15T17:12:11.382Z,33.40
2019-05-15T17:15:00.110Z,33.00
2019-05-15T17:17:48.695Z,33.40
2019-05-15T17:20:37.272Z,33.00
2019-05-15T17:23:27.284Z,32.50
2019-05-15T17:26:14.901Z,32.90
2019-05-15T17:29:03.994Z,33.30
2019-05-15T17:31:52.377Z,33.00
2019-05-15T17:34:41.078Z,33.10
2019-05-15T17:40:17.778Z,33.50
2019-05-15T17:43:09.181Z,33.70
2019-05-15T17:45:58.221Z,34.10
2019-05-15T17:51:38.356Z,34.50
2019-05-15T17:54:28.610Z,35.00
2019-05-15T17:57:16.187Z,35.20
2019-05-15T18:05:39.557Z,35.90
2019-05-15T18:08:28.625Z,36.00
2019-05-15T18:11:18.670Z,36.30
2019-05-15T18:14:08.740Z,36.10
2019-05-15T18:19:43.557Z,37.00
2019-05-15T18:22:31.511Z,37.30
2019-05-15T18:25:19.493Z,37.70
2019-05-15T18:28:08.554Z,37.80
2019-05-15T18:30:58.807Z,38.30
2019-05-15T18:33:54.382Z,38.70
2019-05-15T18:42:12.290Z,40.10
2019-05-15T18:47:48.322Z,40.90
2019-05-15T18:53:28.343Z,41.70
2019-05-15T18:56:18.716Z,42.10
2019-05-15T18:59:08.371Z,42.50
2019-05-15T19:01:55.704Z,43.00
2019-05-15T19:04:43.924Z,43.30
2019-05-15T19:15:57.980Z,46.50
2019-05-15T19:18:47.945Z,47.60
2019-05-15T19:21:38.256Z,48.00
2019-05-15T19:24:26.724Z,48.40
2019-05-15T19:35:38.724Z,54.50
2019-05-15T19:38:27.994Z,55.80
2019-05-15T19:46:51.278Z,62.40
2019-05-15T19:49:39.718Z,64.40
2019-05-15T19:55:17.697Z,67.60
2019-05-15T20:00:55.713Z,69.80
2019-05-15T20:06:33.724Z,72.20
2019-05-15T20:09:22.137Z,73.80
2019-05-15T20:18:07.933Z,75.60
2019-05-15T20:20:58.518Z,76.70
2019-05-15T20:23:48.739Z,76.70
2019-05-15T20:26:38.059Z,77.00
2019-05-15T20:29:26.173Z,76.90
2019-05-15T20:32:14.357Z,76.70
2019-05-15T20:35:04.880Z,76.70
2019-05-15T20:37:52.688Z,77.90
2019-05-15T20:40:41.726Z,78.10
2019-05-15T20:46:19.294Z,79.80
2019-05-15T20:54:48.070Z,80.40
2019-05-15T21:03:12.972Z,81.60
2019-05-15T21:08:52.315Z,82.20
2019-05-15T21:11:40.164Z,82.30
2019-05-15T21:17:19.616Z,83.30
2019-05-15T21:20:09.035Z,83.90
2019-05-15T21:22:57.921Z,84.10
2019-05-15T21:25:48.274Z,84.20
2019-05-15T21:28:35.917Z,84.50
2019-05-15T21:37:02.911Z,85.70
2019-05-15T21:42:41.575Z,86.30
2019-05-15T21:53:55.037Z,86.10
2019-05-15T21:59:31.137Z,85.30
2019-05-15T22:02:20.680Z,85.20
2019-05-15T22:05:08.901Z,86.10
2019-05-15T22:07:58.694Z,86.00
2019-05-15T22:10:48.183Z,86.60
2019-05-15T22:13:39.083Z,87.10
2019-05-15T22:16:28.874Z,88.00
2019-05-15T22:19:18.166Z,88.00
2019-05-15T22:22:08.746Z,88.10
2019-05-15T22:24:57.744Z,88.80
2019-05-15T22:27:46.022Z,89.00
2019-05-15T22:30:34.565Z,89.60
2019-05-15T22:33:22.600Z,90.00
2019-05-15T22:36:11.296Z,90.50
2019-05-15T22:38:59.508Z,90.60
2019-05-15T22:41:48.435Z,90.50
2019-05-15T22:44:38.464Z,90.90
2019-05-15T22:47:28.534Z,91.10
2019-05-15T22:53:04.142Z,91.30
2019-05-15T22:55:52.454Z,91.30
2019-05-15T22:58:40.549Z,91.50
2019-05-15T23:01:29.691Z,91.50
2019-05-15T23:04:18.489Z,91.30
2019-05-15T23:07:08.192Z,91.20
2019-05-15T23:09:58.304Z,91.00
2019-05-15T23:12:48.647Z,91.50
2019-05-15T23:15:38.547Z,91.40
2019-05-15T23:18:27.310Z,91.60
2019-05-15T23:21:15.178Z,91.70
2019-05-15T23:26:51.241Z,92.00
2019-05-15T23:29:39.713Z,91.70
2019-05-15T23:32:28.898Z,92.00
2019-05-15T23:35:17.984Z,92.10
2019-05-15T23:38:08.473Z,92.50
2019-05-15T23:40:58.758Z,92.70
2019-05-15T23:43:48.259Z,92.60
2019-05-15T23:46:38.212Z,92.70
2019-05-15T23:49:27.903Z,93.00
2019-05-15T23:52:16.229Z,92.50
2019-05-15T23:55:04.204Z,92.90
2019-05-15T23:57:52.500Z,92.50
